Burns Pinion Ridge Reserve, California Weather observations

Data are for 10 minute period ending at time listed.
 Day   Time   Solar   Ave.   Ave.  Ave.  Vector  Max.   Baro.   Total    
  of    of     Rad.   Air    Rel.  Wind   Wind   Wind  Press.  Precip.   
Year   Day            Temp.  Hum.  Speed  Dir.   Gust                    
2015   (PST)  Kw/m2    F      %     mph   deg.    mph    mb.     in.     
-------------------------------------------------------------------------
 187   13:10   1.00   88.5    23    8.6   216    17.2   877.6    0.00 
 187   13:20   0.98   88.1    23    8.7   210    17.7   877.3    0.00 
 187   13:30   0.97   88.0    22    9.1   211    19.6   877.2    0.00 
 187   13:40   0.96   88.2    22    9.2   215    20.0   877.1    0.00 
 187   13:50   0.95   90.9    20    8.0   192    15.2   877.1    0.00 
 187   14:00   0.94   89.1    22    9.3   218    18.0   876.9    0.00 
 187   14:10   0.92   88.8    23    9.5   209    17.9   876.8    0.00 
 187   14:20   0.89   89.1    23    9.2   214    19.5   876.7    0.00 
 187   14:30   0.85   88.4    23    8.9   206    16.5   876.6    0.00 
 187   14:40   0.81   88.3    24    9.4   212    17.2   876.5    0.00 
 187   14:50   0.78   88.3    25    9.1   206    16.5   876.4    0.00 
 187   15:00   0.75   87.7    26    9.9   205    18.6   876.4    0.00 
 187   15:10   0.72   87.2    26   10.7   208    17.2   876.4    0.00 
 187   15:20   0.69   86.1    27   10.8   211    19.4   876.4    0.00 
 187   15:30   0.67   88.1    25    7.3   196    19.7   876.3    0.00 
 187   15:40   0.63   87.3    25    8.0   209    18.1   876.2    0.00 
 187   15:50   0.60   87.8    25    7.3   199    16.1   876.2    0.00 
 187   16:00   0.57   86.8    26    9.3   212    18.2   876.2    0.00 
 187   16:10   0.54   87.8    25    7.5   183    14.6   876.0    0.00 
 187   16:20   0.50   87.9    26    7.1   189    17.6   875.9    0.00 
 187   16:30   0.47   87.2    28    7.3   205    12.9   876.0    0.00 
 187   16:40   0.44   87.5    28    7.6   204    15.1   875.9    0.00 
 187   16:50   0.40   86.9    28    7.4   192    17.0   875.8    0.00 
 187   17:00   0.36   86.2    29    9.5   216    17.2   875.9    0.00 
 187   17:10   0.32   85.4    29    7.3   213    15.6   875.9    0.00 
 187   17:20   0.27   85.5    29    7.4   206    14.2   875.9    0.00 
 187   17:30   0.24   85.1    29    8.2   205    19.0   875.8    0.00 
 187   17:40   0.21   85.0    29    7.6   205    15.1   875.7    0.00 
 187   17:50   0.18   84.5    29    8.2   212    17.3   875.6    0.00 
 187   18:00   0.15   85.2    28    8.1   200    15.8   875.5    0.00 
 187   18:10   0.12   84.8    29    6.7   198    14.4   875.6    0.00 
 187   18:20   0.09   84.7    29    5.4   193    12.2   875.7    0.00 
 187   18:30   0.06   84.2    29    6.6   200    14.1   875.7    0.00 
 187   18:40   0.03   82.7    31    7.3   210    17.2   875.7    0.00 
 187   18:50   0.02   81.6    32    6.4   212    12.2   875.7    0.00 
 187   19:00   0.00   80.8    33    4.4   197    11.9   875.7    0.00 
 187   19:10   0.00   80.2    34    5.2   203    14.5   875.8    0.00 
 187   19:20   0.00   79.8    34    7.0   199    17.1   875.8    0.00 
 187   19:30   0.00   79.4    35    6.5   197    15.1   875.8    0.00 
 187   19:40   0.00   79.2    35    5.8   205    11.6   875.9    0.00 
 187   19:50   0.00   79.0    35    5.5   223    10.2   876.1    0.00 
 187   20:00   0.00   78.8    35    6.3   219    12.1   876.2    0.00 
 187   20:10   0.00   78.9    35    5.0   228    11.8   876.3    0.00 
 187   20:20   0.00   79.1    35    7.3   228    14.0   876.4    0.00 
 187   20:30   0.00   79.0    34    7.4   220    12.6   876.5    0.00 
 187   20:40   0.00   79.1    34    8.1   218    12.7   876.6    0.00 
 187   20:50   0.00   78.8    34    6.1   221     9.9   876.8    0.00 
 187   21:00   0.00   78.5    35    5.0   220     8.1   876.9    0.00 
 187   21:10   0.00   78.4    35    5.6   224     8.9   876.9    0.00 
 187   21:20   0.00   78.2    35    5.0   224     8.0   876.9    0.00 
 187   21:30   0.00   77.9    35    5.3   220     8.6   876.9    0.00 
 187   21:40   0.00   77.8    35    4.1   229     7.7   876.9    0.00 
 187   21:50   0.00   77.3    36    3.5   245     7.3   876.9    0.00 
 187   22:00   0.00   77.4    36    5.2   233     9.6   876.8    0.00 
 187   22:10   0.00   77.3    36    3.6   220     8.0   876.8    0.00 
 187   22:20   0.00   76.8    37    3.9   232     8.4   876.8    0.00 
 187   22:30   0.00   76.6    37    4.5   216     9.3   876.8    0.00 
 187   22:40   0.00   76.4    37    4.7   222     9.2   876.7    0.00 
 187   22:50   0.00   76.0    38    4.5   231     9.1   876.7    0.00 
 187   23:00   0.00   75.7    38    3.8   236     9.3   876.7    0.00 
 187   23:10   0.00   75.1    39    4.4   251    10.7   876.7    0.00 
 187   23:20   0.00   75.5    39    4.6   233     9.7   876.7    0.00 
 187   23:30   0.00   74.6    40    1.7   275     3.4   876.7    0.00 
 187   23:40   0.00   74.1    40    2.7   245     6.7   876.6    0.00 
 187   23:50   0.00   74.9    39    3.4   234     7.5   876.5    0.00 
 188    0:00   0.00   75.2    38    4.1   225     7.7   876.5    0.00 
 188    0:10   100.00  99999.0   99999  99999.0   99999   99999.0   99999.0   99999.00 
 188    0:20   0.00   76.2    36    5.2   214     8.8   876.4    0.00 
 188    0:30   0.00   75.7    37    4.3   203     6.6   876.4    0.00 
 188    0:40   0.00   75.0    38    3.7   201     6.9   876.4    0.00 
 188    0:50   0.00   74.8    38    3.3   203     5.1   876.4    0.00 
 188    1:00   0.00   74.1    39    2.5   211     5.6   876.4    0.00 
 188    1:10   0.00   72.6    41    0.3   133     1.7   876.4    0.00 
 188    1:20   0.00   70.7    44    0.7   159     2.9   876.2    0.00 
 188    1:30   0.00   69.5    45    0.1   343     0.9   876.2    0.00 
 188    1:40   0.00   68.5    47    1.2   151     2.2   876.1    0.00 
 188    1:50   0.00   68.5    47    2.6   162     3.5   876.0    0.00 
 188    2:00   0.00   69.0    46    2.7   158     3.9   876.0    0.00 
 188    2:10   0.00   69.4    46    1.3   170     2.8   875.9    0.00 
 188    2:20   0.00   68.2    47    0.0     0     0.0   875.8    0.00 
 188    2:30   0.00   66.7    50    1.9   328     3.1   875.8    0.00 
 188    2:40   0.00   66.0    50    1.5   305     3.0   875.8    0.00 
 188    2:50   0.00   66.2    48    0.4   287     1.8   875.7    0.00 
 188    3:00   0.00   65.8    47    1.7   342     2.9   875.8    0.00 
 188    3:10   0.00   65.4    46    0.5   218     1.1   875.8    0.00 
 188    3:20   0.00   65.1    47    1.0   260     2.3   875.8    0.00 
 188    3:30   0.00   64.3    48    1.9   336     2.9   875.8    0.00 
 188    3:40   0.00   64.5    48    0.9   320     2.6   875.8    0.00 
 188    3:50   0.00   65.1    47    0.6   343     2.0   875.8    0.00 
 188    4:00   0.00   65.2    47    1.1   327     3.0   875.8    0.00 
 188    4:10   0.00   65.7    47    2.6   318     3.7   875.8    0.00 
 188    4:20   0.00   66.6    46    4.4   308     7.2   875.8    0.00 
 188    4:30   0.00   67.7    44    3.1   299     4.3   875.8    0.00 
 188    4:40   0.00   67.3    45    2.8   315     5.6   875.9    0.00 
 188    4:50   0.01   66.5    47    2.2   322     3.7   875.9    0.00 
 188    5:00   0.01   66.1    48    0.8   322     3.0   875.9    0.00 
 188    5:10   0.01   66.0    48    1.9   295     2.9   876.0    0.00 
 188    5:20   0.03   67.6    46    2.6   287     4.3   876.0    0.00 
 188    5:30   0.08   71.4    40    0.8   286     2.6   876.1    0.00 
 188    5:40   0.11   73.6    36    0.1   341     1.2   876.1    0.00 
 188    5:50   0.14   77.3    32    0.0     0     0.4   876.2    0.00 
 188    6:00   0.17   79.1    30    0.7   330     1.9   876.3    0.00 
 188    6:10   0.20   81.4    28    0.3   341     1.3   876.4    0.00 
 188    6:20   0.22   81.6    28    0.2    47     1.1   876.6    0.00 
 188    6:30   0.27   83.7    27    1.3   178     3.8   876.8    0.00 
 188    6:40   0.31   82.5    29    1.9   108     3.6   876.9    0.00 
 188    6:50   0.35   83.1    28    1.7   126     3.8   877.0    0.00 
 188    7:00   0.37   83.6    28    1.8   132     4.2   877.1    0.00 
 188    7:10   0.41   83.8    27    1.9   121     4.1   877.2    0.00 
 188    7:20   0.45   84.5    27    3.2    82     7.4   877.2    0.00 
 188    7:30   0.49   84.7    26    1.6   135     8.0   877.2    0.00 
 188    7:40   0.52   84.2    27    4.5   121     7.8   877.1    0.00 
 188    7:50   0.55   85.5    26    2.0   169     5.8   877.1    0.00 
 188    8:00   0.59   87.8    24    2.7   157     7.2   877.0    0.00 
 188    8:10   0.62   86.1    25    4.6   182     9.5   877.0    0.00 
 188    8:20   0.65   85.3    26    3.9   209     8.9   876.9    0.00 
 188    8:30   0.68   85.7    25    2.7    97     5.7   876.8    0.00 
 188    8:40   0.72   85.6    25    3.8   114     8.8   876.7    0.00 
 188    8:50   0.74   86.5    24    5.2   108    10.9   876.5    0.00 
 188    9:00   0.77   87.2    23    3.2   218    11.6   876.4    0.00 
 188    9:10   0.80   87.3    24    5.1   118    10.4   876.3    0.00 
 188    9:20   0.82   87.2    24    5.3   138     9.1   876.2    0.00 
 188    9:30   0.85   88.0    23    7.7   145    13.8   876.1    0.00 
 188    9:40   0.87   88.2    22    9.2   140    18.1   876.1    0.00 
 188    9:50   0.89   88.9    21    8.6   162    16.4   876.1    0.00 
 188   10:00   0.91   89.2    20    9.8   157    18.6   876.1    0.00 
 188   10:10   0.93   89.0    19   10.7   145    20.5   876.1    0.00 
 188   10:20   0.94   88.5    20   10.6   144    20.0   876.0    0.00 
 188   10:30   0.96   89.3    19    9.9   146    20.8   875.9    0.00 
 188   10:40   0.97   88.8    19   11.5   152    22.4   875.9    0.00 
 188   10:50   0.98   89.7    19    8.5   150    17.0   875.9    0.00 
 188   11:00   0.99   89.2    20    9.3   181    16.4   875.8    0.00 
 188   11:10   0.99   89.1    21    8.4   193    15.6   875.8    0.00 
 188   11:20   1.00   88.7    21    8.4   211    19.2   875.7    0.00 
 188   11:30   1.00   88.4    21    8.8   222    17.5   875.7    0.00 
 188   11:40   1.01   87.8    22   10.8   218    20.6   875.6    0.00 
 188   11:50   1.01   87.9    21    8.6   226    17.8   875.6    0.00 
 188   12:00   1.01   89.8    19    9.6   170    16.2   875.5    0.00 
 188   12:10   0.98   89.6    20    8.1   174    17.9   875.4    0.00 
 188   12:20   1.00   90.5    19    5.3   207    12.3   875.2    0.00 
 188   12:30   1.00   90.6    19    7.4   217    17.4   875.0    0.00 
 188   12:40   0.99   89.4    19    6.7   221    18.9   874.9    0.00 
 188   12:50   0.99   88.8    19    9.9   228    18.6   874.8    0.00 
 188   13:00   0.98   89.1    19    8.0   243    19.4   874.8    0.00 

Return to Burns Pinion Ridge Reserve graphs page.


Western Regional Climate Center,wrcc@dri.edu